sensor_id;sensor_type;location;lat;lon;timestamp;P1;durP1;ratioP1;P2;durP2;ratioP2
5559;SDS011;2803;47.916;8.074;2023-08-17T00:02:04;6.70;;;4.93;;
5559;SDS011;2803;47.916;8.074;2023-08-17T00:04:30;5.97;;;4.77;;
5559;SDS011;2803;47.916;8.074;2023-08-17T00:06:57;6.57;;;4.97;;
5559;SDS011;2803;47.916;8.074;2023-08-17T00:09:24;9.23;;;4.80;;
5559;SDS011;2803;47.916;8.074;2023-08-17T00:11:51;9.90;;;4.73;;
5559;SDS011;2803;47.916;8.074;2023-08-17T00:14:19;7.53;;;4.90;;
5559;SDS011;2803;47.916;8.074;2023-08-17T00:16:45;7.40;;;5.07;;
5559;SDS011;2803;47.916;8.074;2023-08-17T00:19:12;6.60;;;4.60;;
5559;SDS011;2803;47.916;8.074;2023-08-17T00:21:39;9.37;;;4.30;;
5559;SDS011;2803;47.916;8.074;2023-08-17T00:24:05;8.70;;;4.50;;
5559;SDS011;2803;47.916;8.074;2023-08-17T00:26:32;7.03;;;4.07;;
5559;SDS011;2803;47.916;8.074;2023-08-17T00:28:59;10.83;;;4.03;;
5559;SDS011;2803;47.916;8.074;2023-08-17T00:31:27;8.13;;;4.10;;
5559;SDS011;2803;47.916;8.074;2023-08-17T00:33:54;9.90;;;3.80;;
5559;SDS011;2803;47.916;8.074;2023-08-17T00:36:20;12.13;;;4.03;;
5559;SDS011;2803;47.916;8.074;2023-08-17T00:38:47;5.00;;;4.17;;
5559;SDS011;2803;47.916;8.074;2023-08-17T00:41:14;6.87;;;4.03;;
5559;SDS011;2803;47.916;8.074;2023-08-17T00:43:40;8.20;;;5.00;;
5559;SDS011;2803;47.916;8.074;2023-08-17T00:46:07;5.97;;;4.60;;
5559;SDS011;2803;47.916;8.074;2023-08-17T00:48:35;6.00;;;4.70;;
5559;SDS011;2803;47.916;8.074;2023-08-17T00:51:02;7.90;;;4.60;;
5559;SDS011;2803;47.916;8.074;2023-08-17T00:53:30;6.83;;;4.30;;
5559;SDS011;2803;47.916;8.074;2023-08-17T00:55:58;9.50;;;4.50;;
5559;SDS011;2803;47.916;8.074;2023-08-17T00:58:26;8.33;;;4.63;;
5559;SDS011;2803;47.916;8.074;2023-08-17T01:00:54;9.67;;;4.43;;
5559;SDS011;2803;47.916;8.074;2023-08-17T01:03:21;9.10;;;4.77;;
5559;SDS011;2803;47.916;8.074;2023-08-17T01:05:50;4.80;;;3.80;;
5559;SDS011;2803;47.916;8.074;2023-08-17T01:08:17;7.53;;;4.57;;
5559;SDS011;2803;47.916;8.074;2023-08-17T01:10:46;4.53;;;3.73;;
5559;SDS011;2803;47.916;8.074;2023-08-17T01:13:21;7.70;;;4.67;;
5559;SDS011;2803;47.916;8.074;2023-08-17T01:15:52;9.13;;;4.43;;
5559;SDS011;2803;47.916;8.074;2023-08-17T01:18:23;7.73;;;4.37;;
5559;SDS011;2803;47.916;8.074;2023-08-17T01:20:57;12.10;;;4.70;;
5559;SDS011;2803;47.916;8.074;2023-08-17T01:23:26;10.67;;;4.50;;
5559;SDS011;2803;47.916;8.074;2023-08-17T01:25:53;10.43;;;4.40;;
5559;SDS011;2803;47.916;8.074;2023-08-17T01:28:20;6.23;;;3.67;;
5559;SDS011;2803;47.916;8.074;2023-08-17T01:30:48;7.97;;;3.90;;
5559;SDS011;2803;47.916;8.074;2023-08-17T01:33:24;12.13;;;4.17;;
5559;SDS011;2803;47.916;8.074;2023-08-17T01:35:58;12.50;;;4.63;;
5559;SDS011;2803;47.916;8.074;2023-08-17T01:38:32;10.80;;;4.90;;
5559;SDS011;2803;47.916;8.074;2023-08-17T01:41:00;7.97;;;3.73;;
5559;SDS011;2803;47.916;8.074;2023-08-17T01:43:28;8.77;;;4.53;;
5559;SDS011;2803;47.916;8.074;2023-08-17T01:45:56;5.93;;;3.53;;
5559;SDS011;2803;47.916;8.074;2023-08-17T01:48:22;7.13;;;4.67;;
5559;SDS011;2803;47.916;8.074;2023-08-17T01:50:49;4.60;;;3.77;;
5559;SDS011;2803;47.916;8.074;2023-08-17T01:53:16;6.90;;;3.90;;
5559;SDS011;2803;47.916;8.074;2023-08-17T01:55:44;7.27;;;4.37;;
5559;SDS011;2803;47.916;8.074;2023-08-17T01:58:11;5.93;;;4.20;;
5559;SDS011;2803;47.916;8.074;2023-08-17T02:00:38;5.70;;;3.67;;
5559;SDS011;2803;47.916;8.074;2023-08-17T02:03:04;8.83;;;4.03;;
5559;SDS011;2803;47.916;8.074;2023-08-17T02:05:32;5.73;;;3.70;;
5559;SDS011;2803;47.916;8.074;2023-08-17T02:08:01;6.03;;;4.00;;
5559;SDS011;2803;47.916;8.074;2023-08-17T02:10:28;4.03;;;3.60;;
5559;SDS011;2803;47.916;8.074;2023-08-17T02:12:57;4.80;;;4.03;;
5559;SDS011;2803;47.916;8.074;2023-08-17T02:15:24;6.20;;;4.63;;
5559;SDS011;2803;47.916;8.074;2023-08-17T02:17:50;6.23;;;4.23;;
5559;SDS011;2803;47.916;8.074;2023-08-17T02:20:18;5.40;;;3.73;;
5559;SDS011;2803;47.916;8.074;2023-08-17T02:22:48;7.87;;;4.20;;
5559;SDS011;2803;47.916;8.074;2023-08-17T02:25:17;7.13;;;4.10;;
5559;SDS011;2803;47.916;8.074;2023-08-17T02:27:44;7.03;;;4.37;;
5559;SDS011;2803;47.916;8.074;2023-08-17T02:30:12;8.17;;;4.43;;
5559;SDS011;2803;47.916;8.074;2023-08-17T02:32:39;10.50;;;4.43;;
5559;SDS011;2803;47.916;8.074;2023-08-17T02:35:07;7.03;;;4.43;;
5559;SDS011;2803;47.916;8.074;2023-08-17T02:37:36;7.73;;;4.23;;
5559;SDS011;2803;47.916;8.074;2023-08-17T02:40:03;10.60;;;3.80;;
5559;SDS011;2803;47.916;8.074;2023-08-17T02:42:31;6.33;;;4.20;;
5559;SDS011;2803;47.916;8.074;2023-08-17T02:44:58;5.73;;;4.30;;
5559;SDS011;2803;47.916;8.074;2023-08-17T02:47:26;12.07;;;3.80;;
5559;SDS011;2803;47.916;8.074;2023-08-17T02:49:54;7.90;;;4.13;;
5559;SDS011;2803;47.916;8.074;2023-08-17T02:52:22;9.67;;;4.57;;
5559;SDS011;2803;47.916;8.074;2023-08-17T02:54:49;8.00;;;4.03;;
5559;SDS011;2803;47.916;8.074;2023-08-17T02:57:16;5.97;;;4.80;;
5559;SDS011;2803;47.916;8.074;2023-08-17T02:59:43;8.33;;;4.27;;
5559;SDS011;2803;47.916;8.074;2023-08-17T03:02:11;5.50;;;3.93;;
5559;SDS011;2803;47.916;8.074;2023-08-17T03:04:40;7.20;;;4.70;;
5559;SDS011;2803;47.916;8.074;2023-08-17T03:07:07;9.77;;;4.20;;
5559;SDS011;2803;47.916;8.074;2023-08-17T03:09:34;9.97;;;5.33;;
5559;SDS011;2803;47.916;8.074;2023-08-17T03:12:01;7.73;;;5.07;;
5559;SDS011;2803;47.916;8.074;2023-08-17T03:14:28;7.37;;;4.90;;
5559;SDS011;2803;47.916;8.074;2023-08-17T03:16:55;10.17;;;5.00;;
5559;SDS011;2803;47.916;8.074;2023-08-17T03:19:21;5.80;;;4.30;;
5559;SDS011;2803;47.916;8.074;2023-08-17T03:21:49;10.13;;;4.77;;
5559;SDS011;2803;47.916;8.074;2023-08-17T03:24:16;6.27;;;4.63;;
5559;SDS011;2803;47.916;8.074;2023-08-17T03:26:42;4.40;;;3.90;;
5559;SDS011;2803;47.916;8.074;2023-08-17T03:29:09;6.50;;;3.50;;
5559;SDS011;2803;47.916;8.074;2023-08-17T03:31:36;6.40;;;3.90;;
5559;SDS011;2803;47.916;8.074;2023-08-17T03:34:02;8.40;;;4.10;;
5559;SDS011;2803;47.916;8.074;2023-08-17T03:36:29;8.90;;;3.90;;
5559;SDS011;2803;47.916;8.074;2023-08-17T03:38:57;4.33;;;3.70;;
5559;SDS011;2803;47.916;8.074;2023-08-17T03:41:24;11.90;;;4.70;;
5559;SDS011;2803;47.916;8.074;2023-08-17T03:43:51;9.97;;;4.23;;
5559;SDS011;2803;47.916;8.074;2023-08-17T03:46:17;6.00;;;4.23;;
5559;SDS011;2803;47.916;8.074;2023-08-17T03:48:44;6.10;;;4.20;;
5559;SDS011;2803;47.916;8.074;2023-08-17T03:51:11;6.40;;;4.70;;
5559;SDS011;2803;47.916;8.074;2023-08-17T03:53:37;6.73;;;3.50;;
5559;SDS011;2803;47.916;8.074;2023-08-17T03:56:05;5.47;;;4.13;;
5559;SDS011;2803;47.916;8.074;2023-08-17T03:58:32;7.00;;;3.93;;
5559;SDS011;2803;47.916;8.074;2023-08-17T04:00:59;19.40;;;4.90;;
5559;SDS011;2803;47.916;8.074;2023-08-17T04:03:27;13.40;;;5.23;;
5559;SDS011;2803;47.916;8.074;2023-08-17T04:05:54;15.53;;;5.50;;
5559;SDS011;2803;47.916;8.074;2023-08-17T04:08:20;10.93;;;4.97;;
5559;SDS011;2803;47.916;8.074;2023-08-17T04:10:47;7.20;;;5.80;;
5559;SDS011;2803;47.916;8.074;2023-08-17T04:13:15;6.10;;;4.63;;
5559;SDS011;2803;47.916;8.074;2023-08-17T04:15:42;8.40;;;4.30;;
5559;SDS011;2803;47.916;8.074;2023-08-17T04:18:08;8.10;;;4.67;;
5559;SDS011;2803;47.916;8.074;2023-08-17T04:20:35;8.93;;;4.23;;
5559;SDS011;2803;47.916;8.074;2023-08-17T04:23:02;7.60;;;5.37;;
5559;SDS011;2803;47.916;8.074;2023-08-17T04:25:29;6.30;;;4.17;;
5559;SDS011;2803;47.916;8.074;2023-08-17T04:27:55;6.23;;;4.57;;
5559;SDS011;2803;47.916;8.074;2023-08-17T04:30:23;7.13;;;4.77;;
5559;SDS011;2803;47.916;8.074;2023-08-17T04:32:50;11.50;;;5.30;;
5559;SDS011;2803;47.916;8.074;2023-08-17T04:35:18;7.77;;;5.20;;
5559;SDS011;2803;47.916;8.074;2023-08-17T04:37:45;10.00;;;4.73;;
5559;SDS011;2803;47.916;8.074;2023-08-17T04:40:12;6.30;;;5.10;;
5559;SDS011;2803;47.916;8.074;2023-08-17T04:42:39;6.43;;;4.67;;
5559;SDS011;2803;47.916;8.074;2023-08-17T04:45:06;9.70;;;5.10;;
5559;SDS011;2803;47.916;8.074;2023-08-17T04:47:34;9.43;;;6.40;;
5559;SDS011;2803;47.916;8.074;2023-08-17T04:50:01;5.07;;;4.40;;
5559;SDS011;2803;47.916;8.074;2023-08-17T04:52:28;6.43;;;4.97;;
5559;SDS011;2803;47.916;8.074;2023-08-17T04:54:55;5.50;;;4.07;;
5559;SDS011;2803;47.916;8.074;2023-08-17T04:57:21;9.40;;;5.00;;
5559;SDS011;2803;47.916;8.074;2023-08-17T04:59:49;7.00;;;4.47;;
5559;SDS011;2803;47.916;8.074;2023-08-17T05:02:15;6.50;;;4.43;;
5559;SDS011;2803;47.916;8.074;2023-08-17T05:04:43;7.30;;;4.30;;
5559;SDS011;2803;47.916;8.074;2023-08-17T05:07:12;7.93;;;4.63;;
5559;SDS011;2803;47.916;8.074;2023-08-17T05:09:38;8.03;;;5.43;;
5559;SDS011;2803;47.916;8.074;2023-08-17T05:12:05;13.90;;;4.83;;
5559;SDS011;2803;47.916;8.074;2023-08-17T05:14:33;6.83;;;4.90;;
5559;SDS011;2803;47.916;8.074;2023-08-17T05:16:59;7.10;;;4.70;;
5559;SDS011;2803;47.916;8.074;2023-08-17T05:19:26;6.87;;;4.63;;
5559;SDS011;2803;47.916;8.074;2023-08-17T05:21:54;6.87;;;4.57;;
5559;SDS011;2803;47.916;8.074;2023-08-17T05:24:21;5.90;;;4.63;;
5559;SDS011;2803;47.916;8.074;2023-08-17T05:26:47;5.73;;;4.60;;
5559;SDS011;2803;47.916;8.074;2023-08-17T05:29:14;7.27;;;4.87;;
5559;SDS011;2803;47.916;8.074;2023-08-17T05:31:42;6.37;;;5.30;;
5559;SDS011;2803;47.916;8.074;2023-08-17T05:34:09;8.83;;;5.20;;
5559;SDS011;2803;47.916;8.074;2023-08-17T05:36:35;6.80;;;4.40;;
5559;SDS011;2803;47.916;8.074;2023-08-17T05:39:03;8.10;;;4.43;;
5559;SDS011;2803;47.916;8.074;2023-08-17T05:41:30;10.40;;;4.90;;
5559;SDS011;2803;47.916;8.074;2023-08-17T05:43:57;8.27;;;4.20;;
5559;SDS011;2803;47.916;8.074;2023-08-17T05:46:24;6.80;;;4.80;;
5559;SDS011;2803;47.916;8.074;2023-08-17T05:48:50;9.10;;;5.13;;
5559;SDS011;2803;47.916;8.074;2023-08-17T05:51:17;8.13;;;4.67;;
5559;SDS011;2803;47.916;8.074;2023-08-17T05:53:44;5.97;;;4.73;;
5559;SDS011;2803;47.916;8.074;2023-08-17T05:56:11;5.73;;;4.70;;
5559;SDS011;2803;47.916;8.074;2023-08-17T05:58:38;11.80;;;4.23;;
5559;SDS011;2803;47.916;8.074;2023-08-17T06:01:05;5.03;;;3.90;;
5559;SDS011;2803;47.916;8.074;2023-08-17T06:03:32;7.83;;;4.10;;
5559;SDS011;2803;47.916;8.074;2023-08-17T06:05:59;10.80;;;4.77;;
5559;SDS011;2803;47.916;8.074;2023-08-17T06:08:25;5.30;;;4.47;;
5559;SDS011;2803;47.916;8.074;2023-08-17T06:10:52;10.93;;;4.30;;
5559;SDS011;2803;47.916;8.074;2023-08-17T06:13:20;6.40;;;4.30;;
5559;SDS011;2803;47.916;8.074;2023-08-17T06:15:47;9.10;;;4.80;;
5559;SDS011;2803;47.916;8.074;2023-08-17T06:18:14;10.03;;;4.50;;
5559;SDS011;2803;47.916;8.074;2023-08-17T06:20:41;11.83;;;4.83;;
5559;SDS011;2803;47.916;8.074;2023-08-17T06:23:07;9.40;;;4.80;;
5559;SDS011;2803;47.916;8.074;2023-08-17T06:25:35;12.13;;;5.60;;
5559;SDS011;2803;47.916;8.074;2023-08-17T06:28:01;11.43;;;6.47;;
5559;SDS011;2803;47.916;8.074;2023-08-17T06:30:29;12.63;;;5.90;;
5559;SDS011;2803;47.916;8.074;2023-08-17T06:32:56;16.83;;;5.33;;
5559;SDS011;2803;47.916;8.074;2023-08-17T06:35:25;9.57;;;4.07;;
5559;SDS011;2803;47.916;8.074;2023-08-17T06:37:54;24.47;;;8.03;;
5559;SDS011;2803;47.916;8.074;2023-08-17T06:40:22;9.13;;;5.43;;
5559;SDS011;2803;47.916;8.074;2023-08-17T06:42:49;8.67;;;4.57;;
5559;SDS011;2803;47.916;8.074;2023-08-17T06:45:17;8.07;;;5.30;;
5559;SDS011;2803;47.916;8.074;2023-08-17T06:47:45;23.07;;;4.63;;
5559;SDS011;2803;47.916;8.074;2023-08-17T06:50:16;22.30;;;5.33;;
5559;SDS011;2803;47.916;8.074;2023-08-17T06:52:44;29.40;;;5.87;;
5559;SDS011;2803;47.916;8.074;2023-08-17T06:55:11;16.90;;;4.33;;
5559;SDS011;2803;47.916;8.074;2023-08-17T06:57:39;16.67;;;4.50;;
5559;SDS011;2803;47.916;8.074;2023-08-17T07:00:06;42.23;;;6.70;;
5559;SDS011;2803;47.916;8.074;2023-08-17T07:02:35;18.50;;;5.30;;
5559;SDS011;2803;47.916;8.074;2023-08-17T07:05:03;10.27;;;4.33;;
5559;SDS011;2803;47.916;8.074;2023-08-17T07:07:31;8.80;;;4.33;;
5559;SDS011;2803;47.916;8.074;2023-08-17T07:09:57;7.10;;;4.80;;
5559;SDS011;2803;47.916;8.074;2023-08-17T07:12:24;22.67;;;5.10;;
5559;SDS011;2803;47.916;8.074;2023-08-17T07:14:51;16.30;;;4.20;;
5559;SDS011;2803;47.916;8.074;2023-08-17T07:17:17;10.37;;;4.97;;
5559;SDS011;2803;47.916;8.074;2023-08-17T07:19:44;8.20;;;4.23;;
5559;SDS011;2803;47.916;8.074;2023-08-17T07:22:12;6.63;;;4.33;;
5559;SDS011;2803;47.916;8.074;2023-08-17T07:24:39;7.80;;;5.40;;
5559;SDS011;2803;47.916;8.074;2023-08-17T07:27:05;7.97;;;4.20;;
5559;SDS011;2803;47.916;8.074;2023-08-17T07:29:32;13.07;;;4.80;;
5559;SDS011;2803;47.916;8.074;2023-08-17T07:31:58;5.20;;;4.20;;
5559;SDS011;2803;47.916;8.074;2023-08-17T07:34:27;9.90;;;4.83;;
5559;SDS011;2803;47.916;8.074;2023-08-17T07:36:54;13.00;;;4.73;;
5559;SDS011;2803;47.916;8.074;2023-08-17T07:39:21;9.93;;;4.97;;
5559;SDS011;2803;47.916;8.074;2023-08-17T07:41:48;11.03;;;5.87;;
5559;SDS011;2803;47.916;8.074;2023-08-17T07:44:15;9.17;;;4.87;;
5559;SDS011;2803;47.916;8.074;2023-08-17T07:46:42;8.63;;;4.67;;
5559;SDS011;2803;47.916;8.074;2023-08-17T07:49:09;6.13;;;4.50;;
5559;SDS011;2803;47.916;8.074;2023-08-17T07:51:36;10.33;;;5.73;;
5559;SDS011;2803;47.916;8.074;2023-08-17T07:54:02;17.07;;;6.23;;
5559;SDS011;2803;47.916;8.074;2023-08-17T07:56:30;13.20;;;6.17;;
5559;SDS011;2803;47.916;8.074;2023-08-17T07:58:57;12.53;;;5.73;;
5559;SDS011;2803;47.916;8.074;2023-08-17T08:01:24;10.70;;;5.63;;
5559;SDS011;2803;47.916;8.074;2023-08-17T08:03:50;10.90;;;6.63;;
5559;SDS011;2803;47.916;8.074;2023-08-17T08:06:17;6.60;;;5.03;;
5559;SDS011;2803;47.916;8.074;2023-08-17T08:08:45;9.33;;;4.67;;
5559;SDS011;2803;47.916;8.074;2023-08-17T08:11:12;13.57;;;5.87;;
5559;SDS011;2803;47.916;8.074;2023-08-17T08:13:40;16.83;;;5.90;;
5559;SDS011;2803;47.916;8.074;2023-08-17T08:16:07;10.50;;;5.20;;
5559;SDS011;2803;47.916;8.074;2023-08-17T08:18:33;14.93;;;5.60;;
5559;SDS011;2803;47.916;8.074;2023-08-17T08:21:00;10.50;;;5.43;;
5559;SDS011;2803;47.916;8.074;2023-08-17T08:23:26;9.40;;;5.10;;
5559;SDS011;2803;47.916;8.074;2023-08-17T08:25:54;7.97;;;5.00;;
5559;SDS011;2803;47.916;8.074;2023-08-17T08:28:23;5.43;;;4.80;;
5559;SDS011;2803;47.916;8.074;2023-08-17T08:30:51;9.57;;;5.03;;
5559;SDS011;2803;47.916;8.074;2023-08-17T08:33:17;7.43;;;5.00;;
5559;SDS011;2803;47.916;8.074;2023-08-17T08:35:45;7.93;;;5.30;;
5559;SDS011;2803;47.916;8.074;2023-08-17T08:38:13;9.67;;;5.40;;
5559;SDS011;2803;47.916;8.074;2023-08-17T08:40:40;6.40;;;4.90;;
5559;SDS011;2803;47.916;8.074;2023-08-17T08:43:08;6.87;;;5.83;;
5559;SDS011;2803;47.916;8.074;2023-08-17T08:45:36;25.73;;;6.83;;
5559;SDS011;2803;47.916;8.074;2023-08-17T08:48:11;7.60;;;4.83;;
5559;SDS011;2803;47.916;8.074;2023-08-17T08:50:40;10.57;;;5.50;;
5559;SDS011;2803;47.916;8.074;2023-08-17T08:53:09;10.70;;;5.30;;
5559;SDS011;2803;47.916;8.074;2023-08-17T08:55:41;8.53;;;4.93;;
5559;SDS011;2803;47.916;8.074;2023-08-17T08:58:13;9.53;;;5.33;;
5559;SDS011;2803;47.916;8.074;2023-08-17T09:00:42;8.20;;;5.07;;
5559;SDS011;2803;47.916;8.074;2023-08-17T09:03:14;20.00;;;5.37;;
5559;SDS011;2803;47.916;8.074;2023-08-17T09:05:42;10.37;;;4.73;;
5559;SDS011;2803;47.916;8.074;2023-08-17T09:08:10;6.37;;;4.93;;
5559;SDS011;2803;47.916;8.074;2023-08-17T09:10:39;6.53;;;4.63;;
5559;SDS011;2803;47.916;8.074;2023-08-17T09:13:06;11.60;;;4.70;;
5559;SDS011;2803;47.916;8.074;2023-08-17T09:15:33;6.87;;;5.13;;
5559;SDS011;2803;47.916;8.074;2023-08-17T09:18:00;11.90;;;5.37;;
5559;SDS011;2803;47.916;8.074;2023-08-17T09:20:37;5.80;;;4.83;;
5559;SDS011;2803;47.916;8.074;2023-08-17T09:23:09;8.30;;;4.90;;
5559;SDS011;2803;47.916;8.074;2023-08-17T09:25:38;8.33;;;4.97;;
5559;SDS011;2803;47.916;8.074;2023-08-17T09:28:07;8.90;;;5.13;;
5559;SDS011;2803;47.916;8.074;2023-08-17T09:30:38;15.20;;;5.30;;
5559;SDS011;2803;47.916;8.074;2023-08-17T09:33:16;11.80;;;5.40;;
5559;SDS011;2803;47.916;8.074;2023-08-17T09:35:44;18.50;;;5.33;;
5559;SDS011;2803;47.916;8.074;2023-08-17T09:38:10;8.53;;;5.17;;
5559;SDS011;2803;47.916;8.074;2023-08-17T09:40:37;9.63;;;5.10;;
5559;SDS011;2803;47.916;8.074;2023-08-17T09:43:04;10.70;;;5.37;;
5559;SDS011;2803;47.916;8.074;2023-08-17T09:45:30;7.70;;;4.70;;
5559;SDS011;2803;47.916;8.074;2023-08-17T09:47:58;14.40;;;4.80;;
5559;SDS011;2803;47.916;8.074;2023-08-17T09:50:25;18.40;;;4.90;;
5559;SDS011;2803;47.916;8.074;2023-08-17T09:52:54;6.27;;;4.63;;
5559;SDS011;2803;47.916;8.074;2023-08-17T09:55:23;8.20;;;4.27;;
5559;SDS011;2803;47.916;8.074;2023-08-17T09:57:52;7.30;;;4.47;;
5559;SDS011;2803;47.916;8.074;2023-08-17T10:00:21;6.30;;;3.97;;
5559;SDS011;2803;47.916;8.074;2023-08-17T10:02:50;8.57;;;3.00;;
5559;SDS011;2803;47.916;8.074;2023-08-17T10:05:20;5.77;;;3.30;;
5559;SDS011;2803;47.916;8.074;2023-08-17T10:07:51;7.30;;;3.03;;
5559;SDS011;2803;47.916;8.074;2023-08-17T10:10:25;7.63;;;3.13;;
5559;SDS011;2803;47.916;8.074;2023-08-17T10:12:57;6.50;;;3.30;;
5559;SDS011;2803;47.916;8.074;2023-08-17T10:15:37;5.40;;;2.97;;
5559;SDS011;2803;47.916;8.074;2023-08-17T10:18:11;7.83;;;2.83;;
5559;SDS011;2803;47.916;8.074;2023-08-17T10:20:49;9.30;;;2.87;;
5559;SDS011;2803;47.916;8.074;2023-08-17T10:23:32;4.90;;;3.07;;
5559;SDS011;2803;47.916;8.074;2023-08-17T10:26:01;9.00;;;3.17;;
5559;SDS011;2803;47.916;8.074;2023-08-17T10:28:32;3.10;;;2.60;;
5559;SDS011;2803;47.916;8.074;2023-08-17T10:31:01;3.63;;;2.80;;
5559;SDS011;2803;47.916;8.074;2023-08-17T10:33:30;4.23;;;2.77;;
5559;SDS011;2803;47.916;8.074;2023-08-17T10:35:59;9.83;;;3.30;;
5559;SDS011;2803;47.916;8.074;2023-08-17T10:38:28;6.27;;;2.80;;
5559;SDS011;2803;47.916;8.074;2023-08-17T10:49:23;7.10;;;2.77;;
5559;SDS011;2803;47.916;8.074;2023-08-17T10:54:38;6.30;;;2.90;;
5559;SDS011;2803;47.916;8.074;2023-08-17T11:02:55;4.43;;;3.43;;
5559;SDS011;2803;47.916;8.074;2023-08-17T11:08:10;4.63;;;3.00;;
5559;SDS011;2803;47.916;8.074;2023-08-17T11:10:46;5.10;;;3.73;;
5559;SDS011;2803;47.916;8.074;2023-08-17T11:13:25;5.63;;;3.70;;
5559;SDS011;2803;47.916;8.074;2023-08-17T11:15:57;9.10;;;3.70;;
5559;SDS011;2803;47.916;8.074;2023-08-17T11:18:26;5.47;;;3.55;;
5559;SDS011;2803;47.916;8.074;2023-08-17T11:20:56;7.63;;;3.95;;
5559;SDS011;2803;47.916;8.074;2023-08-17T11:23:24;6.35;;;3.67;;
5559;SDS011;2803;47.916;8.074;2023-08-17T11:26:01;8.05;;;3.55;;
5559;SDS011;2803;47.916;8.074;2023-08-17T11:28:30;5.25;;;3.63;;
5559;SDS011;2803;47.916;8.074;2023-08-17T11:31:04;4.68;;;3.88;;
5559;SDS011;2803;47.916;8.074;2023-08-17T11:33:36;7.25;;;3.88;;
5559;SDS011;2803;47.916;8.074;2023-08-17T11:36:07;7.05;;;3.42;;
5559;SDS011;2803;47.916;8.074;2023-08-17T11:38:36;5.78;;;3.17;;
5559;SDS011;2803;47.916;8.074;2023-08-17T11:41:07;8.07;;;3.33;;
5559;SDS011;2803;47.916;8.074;2023-08-17T11:43:36;5.80;;;3.65;;
5559;SDS011;2803;47.916;8.074;2023-08-17T11:46:04;27.77;;;4.55;;
5559;SDS011;2803;47.916;8.074;2023-08-17T11:48:32;9.55;;;3.47;;
5559;SDS011;2803;47.916;8.074;2023-08-17T11:51:02;5.20;;;3.47;;
5559;SDS011;2803;47.916;8.074;2023-08-17T11:53:33;6.78;;;3.72;;
5559;SDS011;2803;47.916;8.074;2023-08-17T11:56:01;9.52;;;3.20;;
5559;SDS011;2803;47.916;8.074;2023-08-17T11:58:41;6.07;;;3.60;;
5559;SDS011;2803;47.916;8.074;2023-08-17T12:01:10;9.23;;;3.60;;
5559;SDS011;2803;47.916;8.074;2023-08-17T12:03:37;9.65;;;3.55;;
5559;SDS011;2803;47.916;8.074;2023-08-17T12:06:05;9.75;;;3.13;;
5559;SDS011;2803;47.916;8.074;2023-08-17T12:08:33;6.15;;;3.53;;
5559;SDS011;2803;47.916;8.074;2023-08-17T12:11:00;10.23;;;3.15;;
5559;SDS011;2803;47.916;8.074;2023-08-17T12:13:29;8.63;;;3.78;;
5559;SDS011;2803;47.916;8.074;2023-08-17T12:15:59;10.20;;;3.63;;
5559;SDS011;2803;47.916;8.074;2023-08-17T12:18:26;6.97;;;3.40;;
5559;SDS011;2803;47.916;8.074;2023-08-17T12:20:52;7.30;;;3.20;;
5559;SDS011;2803;47.916;8.074;2023-08-17T12:23:19;12.20;;;3.42;;
5559;SDS011;2803;47.916;8.074;2023-08-17T12:25:51;4.93;;;3.42;;
5559;SDS011;2803;47.916;8.074;2023-08-17T12:28:18;5.63;;;3.40;;
5559;SDS011;2803;47.916;8.074;2023-08-17T12:30:45;8.25;;;3.00;;
5559;SDS011;2803;47.916;8.074;2023-08-17T12:33:13;6.10;;;3.00;;
5559;SDS011;2803;47.916;8.074;2023-08-17T12:35:40;9.70;;;3.50;;
5559;SDS011;2803;47.916;8.074;2023-08-17T12:38:06;6.53;;;4.03;;
5559;SDS011;2803;47.916;8.074;2023-08-17T12:40:33;9.30;;;3.15;;
5559;SDS011;2803;47.916;8.074;2023-08-17T12:42:59;4.03;;;2.90;;
5559;SDS011;2803;47.916;8.074;2023-08-17T12:45:26;5.13;;;3.38;;
5559;SDS011;2803;47.916;8.074;2023-08-17T12:47:54;12.15;;;3.55;;
5559;SDS011;2803;47.916;8.074;2023-08-17T12:50:22;10.93;;;3.60;;
5559;SDS011;2803;47.916;8.074;2023-08-17T12:52:49;9.07;;;3.37;;
5559;SDS011;2803;47.916;8.074;2023-08-17T12:55:16;7.45;;;3.47;;
5559;SDS011;2803;47.916;8.074;2023-08-17T12:57:42;10.17;;;2.90;;
5559;SDS011;2803;47.916;8.074;2023-08-17T13:00:09;7.00;;;3.30;;
5559;SDS011;2803;47.916;8.074;2023-08-17T13:02:36;6.87;;;3.53;;
5559;SDS011;2803;47.916;8.074;2023-08-17T13:05:03;6.03;;;3.43;;
5559;SDS011;2803;47.916;8.074;2023-08-17T13:07:30;10.60;;;4.10;;
5559;SDS011;2803;47.916;8.074;2023-08-17T13:09:57;9.60;;;3.93;;
5559;SDS011;2803;47.916;8.074;2023-08-17T13:12:24;8.83;;;3.50;;
5559;SDS011;2803;47.916;8.074;2023-08-17T13:14:51;7.30;;;2.83;;
5559;SDS011;2803;47.916;8.074;2023-08-17T13:17:20;7.10;;;3.43;;
5559;SDS011;2803;47.916;8.074;2023-08-17T13:19:48;56.00;;;5.33;;
5559;SDS011;2803;47.916;8.074;2023-08-17T13:22:15;10.57;;;3.50;;
5559;SDS011;2803;47.916;8.074;2023-08-17T13:24:43;6.37;;;3.00;;
5559;SDS011;2803;47.916;8.074;2023-08-17T13:27:09;7.53;;;3.70;;
5559;SDS011;2803;47.916;8.074;2023-08-17T13:29:36;9.03;;;3.63;;
5559;SDS011;2803;47.916;8.074;2023-08-17T13:32:04;6.73;;;3.27;;
5559;SDS011;2803;47.916;8.074;2023-08-17T13:34:30;7.20;;;2.80;;
5559;SDS011;2803;47.916;8.074;2023-08-17T13:36:58;6.10;;;3.63;;
5559;SDS011;2803;47.916;8.074;2023-08-17T13:39:25;5.40;;;3.10;;
5559;SDS011;2803;47.916;8.074;2023-08-17T13:41:53;18.60;;;3.80;;
5559;SDS011;2803;47.916;8.074;2023-08-17T13:44:19;5.80;;;3.10;;
5559;SDS011;2803;47.916;8.074;2023-08-17T13:46:46;5.13;;;3.40;;
5559;SDS011;2803;47.916;8.074;2023-08-17T13:49:13;9.93;;;3.13;;
5559;SDS011;2803;47.916;8.074;2023-08-17T13:51:39;10.43;;;3.67;;
5559;SDS011;2803;47.916;8.074;2023-08-17T13:54:06;13.10;;;3.70;;
5559;SDS011;2803;47.916;8.074;2023-08-17T13:56:33;13.67;;;3.43;;
5559;SDS011;2803;47.916;8.074;2023-08-17T13:59:01;15.80;;;3.77;;
5559;SDS011;2803;47.916;8.074;2023-08-17T14:01:27;9.07;;;3.37;;
5559;SDS011;2803;47.916;8.074;2023-08-17T14:03:54;12.77;;;3.17;;
5559;SDS011;2803;47.916;8.074;2023-08-17T14:06:20;8.37;;;3.67;;
5559;SDS011;2803;47.916;8.074;2023-08-17T14:08:47;10.20;;;3.97;;
5559;SDS011;2803;47.916;8.074;2023-08-17T14:11:14;8.70;;;3.90;;
5559;SDS011;2803;47.916;8.074;2023-08-17T14:13:40;9.30;;;4.07;;
5559;SDS011;2803;47.916;8.074;2023-08-17T14:16:08;9.63;;;4.10;;
5559;SDS011;2803;47.916;8.074;2023-08-17T14:18:35;18.53;;;3.73;;
5559;SDS011;2803;47.916;8.074;2023-08-17T14:21:01;11.30;;;3.70;;
5559;SDS011;2803;47.916;8.074;2023-08-17T14:23:28;12.57;;;4.00;;
5559;SDS011;2803;47.916;8.074;2023-08-17T14:25:54;9.10;;;3.57;;
5559;SDS011;2803;47.916;8.074;2023-08-17T14:28:21;11.17;;;3.87;;
5559;SDS011;2803;47.916;8.074;2023-08-17T14:30:48;8.93;;;4.40;;
5559;SDS011;2803;47.916;8.074;2023-08-17T14:33:16;6.57;;;4.10;;
5559;SDS011;2803;47.916;8.074;2023-08-17T14:35:42;12.80;;;4.00;;
5559;SDS011;2803;47.916;8.074;2023-08-17T14:38:09;11.10;;;3.67;;
5559;SDS011;2803;47.916;8.074;2023-08-17T14:40:41;8.67;;;4.03;;
5559;SDS011;2803;47.916;8.074;2023-08-17T14:43:09;10.63;;;3.27;;
5559;SDS011;2803;47.916;8.074;2023-08-17T14:45:36;11.37;;;3.70;;
5559;SDS011;2803;47.916;8.074;2023-08-17T14:48:03;12.70;;;4.20;;
5559;SDS011;2803;47.916;8.074;2023-08-17T14:50:32;10.17;;;3.97;;
5559;SDS011;2803;47.916;8.074;2023-08-17T14:52:59;12.67;;;4.13;;
5559;SDS011;2803;47.916;8.074;2023-08-17T14:55:27;16.70;;;4.10;;
5559;SDS011;2803;47.916;8.074;2023-08-17T14:57:54;12.50;;;3.77;;
5559;SDS011;2803;47.916;8.074;2023-08-17T15:00:20;12.33;;;4.67;;
5559;SDS011;2803;47.916;8.074;2023-08-17T15:02:47;6.93;;;3.30;;
5559;SDS011;2803;47.916;8.074;2023-08-17T15:05:14;9.37;;;3.80;;
5559;SDS011;2803;47.916;8.074;2023-08-17T15:07:43;12.23;;;3.87;;
5559;SDS011;2803;47.916;8.074;2023-08-17T15:10:10;10.17;;;3.77;;
5559;SDS011;2803;47.916;8.074;2023-08-17T15:12:37;12.53;;;3.60;;
5559;SDS011;2803;47.916;8.074;2023-08-17T15:15:05;17.67;;;3.43;;
5559;SDS011;2803;47.916;8.074;2023-08-17T15:17:33;16.93;;;3.47;;
5559;SDS011;2803;47.916;8.074;2023-08-17T15:20:01;17.90;;;4.70;;
5559;SDS011;2803;47.916;8.074;2023-08-17T15:22:29;13.00;;;4.10;;
5559;SDS011;2803;47.916;8.074;2023-08-17T15:24:57;12.50;;;4.87;;
5559;SDS011;2803;47.916;8.074;2023-08-17T15:27:24;7.13;;;3.60;;
5559;SDS011;2803;47.916;8.074;2023-08-17T15:29:51;12.23;;;4.13;;
5559;SDS011;2803;47.916;8.074;2023-08-17T15:32:18;8.13;;;3.90;;
5559;SDS011;2803;47.916;8.074;2023-08-17T15:34:45;9.73;;;3.70;;